createdAt,value
2022-09-04T00:00:09.955Z,0.70
2022-09-04T00:00:51.315Z,0.70
2022-09-04T00:01:31.469Z,0.70
2022-09-04T00:02:16.396Z,0.70
2022-09-04T00:03:15.281Z,0.50
2022-09-04T00:03:51.352Z,0.70
2022-09-04T00:04:34.815Z,0.60
2022-09-04T00:05:13.931Z,0.67
2022-09-04T00:05:56.992Z,0.70
2022-09-04T00:06:34.393Z,0.70
2022-09-04T00:07:15.448Z,0.70
2022-09-04T00:07:59.309Z,0.60
2022-09-04T00:08:46.268Z,0.70
2022-09-04T00:09:23.109Z,0.63
2022-09-04T00:10:09.788Z,0.50
2022-09-04T00:10:50.878Z,0.70
2022-09-04T00:11:38.594Z,0.60
2022-09-04T00:12:13.597Z,0.60
2022-09-04T00:12:50.089Z,0.70
2022-09-04T00:13:24.403Z,0.50
2022-09-04T00:14:02.388Z,0.70
2022-09-04T00:14:40.774Z,0.60
2022-09-04T00:15:15.578Z,0.57
2022-09-04T00:15:54.135Z,0.50
2022-09-04T00:16:29.387Z,0.50
2022-09-04T00:17:06.140Z,0.50
2022-09-04T00:17:44.762Z,0.40
2022-09-04T00:18:21.227Z,0.60
2022-09-04T00:19:02.695Z,0.57
2022-09-04T00:19:40.445Z,0.50
2022-09-04T00:20:25.878Z,0.67
2022-09-04T00:21:06.163Z,0.50
2022-09-04T00:21:43.906Z,0.50
2022-09-04T00:22:25.881Z,0.50
2022-09-04T00:23:04.869Z,0.40
2022-09-04T00:23:42.325Z,0.50
2022-09-04T00:24:18.548Z,0.57
2022-09-04T00:24:53.899Z,0.50
2022-09-04T00:25:34.043Z,0.40
2022-09-04T00:26:17.494Z,0.40
2022-09-04T00:26:58.201Z,0.40
2022-09-04T00:27:35.953Z,0.40
2022-09-04T00:28:15.218Z,0.50
2022-09-04T00:28:49.809Z,0.50
2022-09-04T00:29:27.273Z,0.50
2022-09-04T00:30:08.405Z,0.40
2022-09-04T00:30:47.072Z,0.40
2022-09-04T00:31:26.097Z,0.60
2022-09-04T00:32:05.258Z,0.40
2022-09-04T00:32:41.385Z,0.40
2022-09-04T00:33:19.739Z,0.43
2022-09-04T00:34:03.124Z,0.50
2022-09-04T00:34:51.068Z,0.47
2022-09-04T00:35:31.607Z,0.50
2022-09-04T00:36:04.450Z,0.50
2022-09-04T00:36:40.381Z,0.50
2022-09-04T00:37:21.342Z,0.60
2022-09-04T00:37:59.160Z,0.40
2022-09-04T00:38:43.449Z,0.50
2022-09-04T00:39:18.216Z,0.60
2022-09-04T00:39:55.650Z,0.50
2022-09-04T00:40:33.537Z,0.50
2022-09-04T00:41:17.106Z,0.47
2022-09-04T00:41:58.933Z,0.43
2022-09-04T00:42:50.260Z,0.50
2022-09-04T00:43:37.397Z,0.60
2022-09-04T00:44:30.164Z,0.50
2022-09-04T00:45:19.410Z,0.50
2022-09-04T00:46:02.594Z,0.67
2022-09-04T00:46:54.878Z,0.50
2022-09-04T00:47:48.783Z,0.50
2022-09-04T00:48:37.573Z,0.60
2022-09-04T00:49:33.149Z,0.40
2022-09-04T00:50:31.422Z,0.40
2022-09-04T00:51:16.103Z,0.50
2022-09-04T00:51:54.661Z,0.50
2022-09-04T00:52:47.157Z,0.50
2022-09-04T00:53:30.604Z,0.50
2022-09-04T00:54:21.013Z,0.40
2022-09-04T00:55:02.749Z,0.40
2022-09-04T00:55:59.145Z,0.50
2022-09-04T00:56:55.948Z,0.50
2022-09-04T00:57:52.058Z,0.40
2022-09-04T00:58:39.443Z,0.50
2022-09-04T00:59:16.215Z,0.40
2022-09-04T01:00:11.125Z,0.40
2022-09-04T01:00:44.703Z,0.40
2022-09-04T01:01:22.132Z,0.40
2022-09-04T01:02:00.139Z,0.40
2022-09-04T01:02:42.733Z,0.50
2022-09-04T01:03:40.929Z,0.40
2022-09-04T01:04:31.920Z,0.40
2022-09-04T01:05:10.022Z,0.43
2022-09-04T01:06:12.917Z,0.40
2022-09-04T01:06:54.453Z,0.40
2022-09-04T01:07:47.018Z,0.40
2022-09-04T01:08:28.020Z,0.40
2022-09-04T01:09:32.210Z,0.40
2022-09-04T01:10:12.993Z,0.50
2022-09-04T01:10:51.755Z,0.40
2022-09-04T01:11:34.941Z,0.50
2022-09-04T01:12:17.794Z,0.40
2022-09-04T01:12:56.353Z,0.50
2022-09-04T01:13:36.326Z,0.50
2022-09-04T01:14:15.170Z,0.47
2022-09-04T01:14:58.657Z,0.40
2022-09-04T01:15:36.901Z,0.40
2022-09-04T01:16:14.391Z,0.50
2022-09-04T01:16:51.351Z,0.50
2022-09-04T01:17:27.518Z,0.50
2022-09-04T01:18:06.674Z,0.50
2022-09-04T01:18:48.284Z,0.40
2022-09-04T01:19:44.844Z,0.40
2022-09-04T01:20:22.284Z,0.50
2022-09-04T01:21:16.926Z,0.50
2022-09-04T01:22:04.712Z,0.40
2022-09-04T01:22:55.885Z,0.40
2022-09-04T01:23:45.533Z,0.50
2022-09-04T01:24:42.566Z,0.50
2022-09-04T01:25:30.739Z,0.50
2022-09-04T01:26:11.928Z,0.40
2022-09-04T01:26:48.102Z,0.50
2022-09-04T01:27:24.736Z,0.50
2022-09-04T01:28:03.573Z,0.50
2022-09-04T01:28:42.252Z,0.60
2022-09-04T01:29:22.725Z,0.53
2022-09-04T01:30:04.654Z,0.43
2022-09-04T01:30:43.810Z,0.60
2022-09-04T01:31:24.998Z,0.60
2022-09-04T01:32:08.084Z,0.40
2022-09-04T01:32:46.453Z,0.50
2022-09-04T01:33:27.523Z,0.50
2022-09-04T01:34:10.884Z,0.40
2022-09-04T01:34:51.525Z,0.50
2022-09-04T01:35:33.757Z,0.43
2022-09-04T01:36:11.429Z,0.50
2022-09-04T01:36:48.142Z,0.50
2022-09-04T01:37:39.890Z,0.70
2022-09-04T01:38:16.726Z,0.50
2022-09-04T01:38:53.694Z,0.60
2022-09-04T01:39:30.174Z,0.50
2022-09-04T01:40:23.058Z,0.60
2022-09-04T01:41:18.564Z,0.50
2022-09-04T01:41:54.530Z,0.53
2022-09-04T01:42:32.769Z,0.50
2022-09-04T01:43:13.780Z,0.50
2022-09-04T01:43:46.071Z,0.50
2022-09-04T01:44:18.385Z,0.43
2022-09-04T01:44:50.713Z,0.60
2022-09-04T01:45:43.191Z,0.50
2022-09-04T01:46:39.511Z,0.50
2022-09-04T01:47:19.128Z,0.50
2022-09-04T01:47:52.406Z,0.50
2022-09-04T01:48:32.510Z,0.50
2022-09-04T01:49:11.598Z,0.50
2022-09-04T01:49:48.489Z,0.50
2022-09-04T01:50:26.705Z,0.50
2022-09-04T01:51:02.512Z,0.60
2022-09-04T01:51:42.735Z,0.40
2022-09-04T01:52:36.850Z,0.60
2022-09-04T01:53:16.303Z,0.50
2022-09-04T01:54:00.331Z,0.40
2022-09-04T01:54:41.625Z,0.50
2022-09-04T01:55:24.191Z,0.50
2022-09-04T01:56:00.326Z,0.50
2022-09-04T01:56:39.894Z,0.40
2022-09-04T01:57:23.138Z,0.40
2022-09-04T01:58:01.807Z,0.40
2022-09-04T01:58:41.603Z,0.50
2022-09-04T01:59:22.429Z,0.40
2022-09-04T02:00:07.051Z,0.47
2022-09-04T02:00:50.355Z,0.40
2022-09-04T02:01:32.690Z,0.47
2022-09-04T02:02:09.724Z,0.40
2022-09-04T02:02:55.304Z,0.40
2022-09-04T02:03:33.166Z,0.47
2022-09-04T02:04:12.682Z,0.50
2022-09-04T02:04:53.066Z,0.40
2022-09-04T02:05:31.832Z,0.40
2022-09-04T02:06:13.629Z,0.40
2022-09-04T02:06:50.522Z,0.40
2022-09-04T02:07:29.246Z,0.50
2022-09-04T02:08:14.213Z,0.43
2022-09-04T02:09:08.449Z,0.50
2022-09-04T02:09:49.466Z,0.50
2022-09-04T02:10:31.774Z,0.40
2022-09-04T02:11:09.417Z,0.50
2022-09-04T02:11:55.384Z,0.43
2022-09-04T02:12:36.084Z,0.50
2022-09-04T02:13:15.341Z,0.50
2022-09-04T02:14:08.948Z,0.50
2022-09-04T02:14:45.814Z,0.50
2022-09-04T02:15:30.877Z,0.50
2022-09-04T02:16:14.733Z,0.40
2022-09-04T02:17:00.954Z,0.43
2022-09-04T02:17:41.115Z,0.50
2022-09-04T02:18:20.135Z,0.50
2022-09-04T02:19:03.666Z,0.50
2022-09-04T02:19:42.445Z,0.50
2022-09-04T02:20:22.745Z,0.50
2022-09-04T02:21:03.059Z,0.60
2022-09-04T02:21:37.998Z,0.50
2022-09-04T02:22:21.125Z,0.60
2022-09-04T02:23:06.770Z,0.60
2022-09-04T02:23:42.148Z,0.60
2022-09-04T02:24:22.263Z,0.40
2022-09-04T02:25:03.852Z,0.40
2022-09-04T02:25:40.823Z,0.50
2022-09-04T02:26:19.455Z,0.53
2022-09-04T02:27:00.849Z,0.50
2022-09-04T02:27:42.069Z,0.57
2022-09-04T02:28:21.663Z,0.50
2022-09-04T02:29:00.265Z,0.40
2022-09-04T02:29:36.229Z,0.50
2022-09-04T02:30:11.924Z,0.40
2022-09-04T02:30:54.182Z,0.53
2022-09-04T02:31:33.358Z,0.50
2022-09-04T02:32:12.016Z,0.40
2022-09-04T02:32:52.600Z,0.40
2022-09-04T02:33:31.462Z,0.50
2022-09-04T02:34:07.934Z,0.50
2022-09-04T02:34:47.290Z,0.50
2022-09-04T02:35:22.911Z,0.60
2022-09-04T02:35:58.113Z,0.43
2022-09-04T02:36:37.885Z,0.40
2022-09-04T02:37:15.066Z,0.40
2022-09-04T02:37:58.788Z,0.37
2022-09-04T02:38:38.913Z,0.40
2022-09-04T02:39:21.777Z,0.40
2022-09-04T02:40:01.112Z,0.40
2022-09-04T02:40:44.709Z,0.57
2022-09-04T02:41:22.146Z,0.50
2022-09-04T02:42:08.871Z,0.43
2022-09-04T02:42:48.471Z,0.50
2022-09-04T02:43:28.366Z,0.40
2022-09-04T02:44:13.726Z,0.40
2022-09-04T02:44:50.152Z,0.40
2022-09-04T02:45:28.986Z,0.43
2022-09-04T02:46:07.458Z,0.50
2022-09-04T02:46:49.867Z,0.40
2022-09-04T02:47:27.269Z,0.40
2022-09-04T02:48:09.359Z,0.40
2022-09-04T02:48:52.261Z,0.37
2022-09-04T02:49:31.373Z,0.40
2022-09-04T02:50:14.311Z,0.40
2022-09-04T02:50:57.378Z,0.40
2022-09-04T02:51:43.713Z,0.40
2022-09-04T02:52:33.694Z,0.40
2022-09-04T02:53:18.562Z,0.63
2022-09-04T02:53:57.238Z,0.40
2022-09-04T02:54:45.929Z,0.40
2022-09-04T02:55:30.570Z,0.40
2022-09-04T02:56:24.177Z,0.40
2022-09-04T02:57:09.428Z,0.40
2022-09-04T02:57:56.729Z,0.40
2022-09-04T02:58:39.824Z,0.40
2022-09-04T02:59:35.079Z,0.50
2022-09-04T03:00:12.984Z,0.40
2022-09-04T03:00:55.329Z,0.50
2022-09-04T03:01:35.982Z,0.40
2022-09-04T03:02:15.991Z,0.40
2022-09-04T03:02:56.004Z,0.47
2022-09-04T03:03:32.670Z,0.40
2022-09-04T03:04:10.734Z,0.40
2022-09-04T03:04:50.978Z,0.60
2022-09-04T03:05:25.301Z,0.40
2022-09-04T03:06:02.689Z,0.40
2022-09-04T03:06:53.730Z,0.40
2022-09-04T03:07:31.271Z,0.50
2022-09-04T03:08:13.753Z,0.40
2022-09-04T03:08:57.282Z,0.50
2022-09-04T03:09:33.342Z,0.47
2022-09-04T03:10:10.733Z,0.40
2022-09-04T03:10:48.894Z,0.50
2022-09-04T03:11:24.733Z,0.60
2022-09-04T03:12:03.956Z,0.40
2022-09-04T03:12:48.108Z,0.40
2022-09-04T03:13:25.766Z,0.50
2022-09-04T03:14:06.216Z,0.50
2022-09-04T03:14:49.690Z,0.40
2022-09-04T03:15:27.554Z,0.40
2022-09-04T03:16:08.638Z,0.50
2022-09-04T03:16:44.049Z,0.50
2022-09-04T03:17:20.670Z,0.40
2022-09-04T03:18:02.862Z,0.43
2022-09-04T03:18:55.628Z,0.50
2022-09-04T03:19:35.095Z,0.40
2022-09-04T03:20:12.145Z,0.50
2022-09-04T03:20:49.705Z,0.40
2022-09-04T03:21:28.305Z,0.50
2022-09-04T03:22:05.561Z,0.43
2022-09-04T03:22:55.452Z,0.40
2022-09-04T03:23:39.817Z,0.40
2022-09-04T03:24:16.454Z,0.40
2022-09-04T03:25:03.770Z,0.40
2022-09-04T03:26:02.290Z,0.40
2022-09-04T03:26:36.642Z,0.40
2022-09-04T03:27:16.688Z,0.40
2022-09-04T03:27:49.030Z,0.50
2022-09-04T03:28:28.225Z,0.40
2022-09-04T03:29:10.252Z,0.40
2022-09-04T03:29:54.259Z,0.40
2022-09-04T03:30:30.736Z,0.50
2022-09-04T03:31:24.814Z,0.50
2022-09-04T03:32:15.887Z,0.40
2022-09-04T03:32:58.563Z,0.40
2022-09-04T03:33:41.710Z,0.40
2022-09-04T03:34:28.868Z,0.40
2022-09-04T03:35:06.894Z,0.40
2022-09-04T03:35:47.538Z,0.40
2022-09-04T03:36:29.777Z,0.40
2022-09-04T03:37:21.330Z,0.40
2022-09-04T03:38:03.673Z,0.40
2022-09-04T03:38:45.645Z,0.50
2022-09-04T03:39:26.409Z,0.40
2022-09-04T03:40:11.050Z,0.40
2022-09-04T03:40:46.385Z,0.40
2022-09-04T03:41:25.366Z,0.43
2022-09-04T03:42:05.970Z,0.37
2022-09-04T03:42:58.972Z,0.40
2022-09-04T03:43:52.734Z,0.40
2022-09-04T03:44:31.451Z,0.40
2022-09-04T03:45:15.602Z,0.40
2022-09-04T03:45:56.433Z,0.40
2022-09-04T03:46:39.125Z,0.40
2022-09-04T03:47:23.600Z,0.40
2022-09-04T03:48:10.715Z,0.40
2022-09-04T03:49:03.046Z,0.40
2022-09-04T03:49:46.278Z,0.40
2022-09-04T03:50:25.384Z,0.40
2022-09-04T03:51:10.707Z,0.40
2022-09-04T03:51:54.256Z,0.40
2022-09-04T03:52:33.122Z,0.40
2022-09-04T03:53:14.780Z,0.40
2022-09-04T03:53:52.162Z,0.40
2022-09-04T03:54:36.023Z,0.40
2022-09-04T03:55:34.862Z,0.30
2022-09-04T03:56:20.994Z,0.40
2022-09-04T03:57:12.508Z,0.40
2022-09-04T03:58:06.133Z,0.40
2022-09-04T03:58:46.217Z,0.40
2022-09-04T03:59:37.876Z,0.50
2022-09-04T04:00:12.885Z,0.40
2022-09-04T04:00:50.257Z,0.50
2022-09-04T04:01:29.402Z,0.40
2022-09-04T04:02:06.675Z,0.40
2022-09-04T04:03:00.440Z,0.40
2022-09-04T04:04:01.101Z,0.40
2022-09-04T04:05:03.917Z,0.40
2022-09-04T04:06:02.881Z,0.40
2022-09-04T04:06:44.174Z,0.40
2022-09-04T04:07:27.197Z,0.40
2022-09-04T04:08:10.338Z,0.40
2022-09-04T04:09:11.985Z,0.50
2022-09-04T04:09:56.704Z,0.50
2022-09-04T04:10:33.889Z,0.50
2022-09-04T04:11:24.433Z,0.50
2022-09-04T04:12:19.195Z,0.43
2022-09-04T04:13:19.493Z,0.47
2022-09-04T04:14:07.733Z,0.50
2022-09-04T04:15:03.558Z,0.50
2022-09-04T04:15:45.586Z,0.50
2022-09-04T04:16:38.722Z,0.80
2022-09-04T04:17:31.025Z,0.50
2022-09-04T04:18:36.424Z,0.43
2022-09-04T04:19:38.940Z,0.50
2022-09-04T04:20:22.172Z,0.50
2022-09-04T04:21:01.800Z,0.73
2022-09-04T04:21:56.036Z,0.40
2022-09-04T04:22:49.011Z,0.50
2022-09-04T04:23:41.886Z,0.50
2022-09-04T04:24:29.083Z,0.40
2022-09-04T04:25:52.410Z,0.40
2022-09-04T04:26:42.435Z,0.40
2022-09-04T04:27:32.494Z,0.40
2022-09-04T04:28:20.257Z,0.40
2022-09-04T04:29:17.062Z,0.43
2022-09-04T04:29:59.154Z,0.30
2022-09-04T04:30:38.861Z,0.40
2022-09-04T04:31:21.874Z,0.30
2022-09-04T04:32:13.902Z,0.40
2022-09-04T04:33:02.741Z,0.40
2022-09-04T04:33:47.294Z,0.50
2022-09-04T04:34:26.786Z,0.40
2022-09-04T04:35:11.634Z,0.40
2022-09-04T04:35:51.801Z,0.43
2022-09-04T04:36:30.302Z,0.40
2022-09-04T04:37:07.490Z,0.37
2022-09-04T04:37:53.572Z,0.40
2022-09-04T04:38:36.775Z,0.40
2022-09-04T04:39:17.654Z,0.47
2022-09-04T04:39:55.208Z,0.40
2022-09-04T04:40:39.548Z,0.40
2022-09-04T04:41:30.915Z,0.30
2022-09-04T04:42:15.451Z,0.40
2022-09-04T04:42:58.162Z,0.40
2022-09-04T04:43:45.374Z,0.30
2022-09-04T04:44:18.892Z,0.40
2022-09-04T04:45:21.326Z,0.40
2022-09-04T04:46:00.038Z,0.40
2022-09-04T04:46:46.416Z,0.40
2022-09-04T04:47:27.758Z,0.40
2022-09-04T04:48:32.882Z,0.30
2022-09-04T04:49:37.297Z,0.40
2022-09-04T04:50:16.824Z,0.40
2022-09-04T04:51:08.929Z,0.40
2022-09-04T04:52:16.038Z,0.40
2022-09-04T04:52:59.849Z,0.40
2022-09-04T04:53:43.836Z,0.40
2022-09-04T04:54:26.896Z,0.40
2022-09-04T04:55:06.515Z,0.40
2022-09-04T04:55:49.406Z,0.40
2022-09-04T04:56:23.701Z,0.40
2022-09-04T04:57:00.418Z,0.40
2022-09-04T04:57:43.292Z,0.40
2022-09-04T04:58:28.426Z,0.40
2022-09-04T04:59:20.794Z,0.40
2022-09-04T05:00:06.506Z,0.40
2022-09-04T05:00:41.382Z,0.40
2022-09-04T05:01:28.366Z,0.40
2022-09-04T05:02:07.942Z,0.40
2022-09-04T05:02:51.789Z,0.40
2022-09-04T05:03:32.536Z,0.40
2022-09-04T05:04:11.782Z,0.40
2022-09-04T05:04:49.517Z,0.40
2022-09-04T05:05:43.749Z,0.30
2022-09-04T05:06:21.334Z,0.40
2022-09-04T05:07:00.108Z,0.40
2022-09-04T05:07:38.313Z,0.60
2022-09-04T05:08:18.718Z,0.40
2022-09-04T05:08:58.611Z,0.40
2022-09-04T05:09:36.958Z,0.50
2022-09-04T05:10:17.840Z,0.40
2022-09-04T05:10:56.921Z,0.40
2022-09-04T05:11:35.595Z,0.60
2022-09-04T05:12:14.016Z,0.40
2022-09-04T05:13:00.886Z,0.57
2022-09-04T05:13:40.114Z,0.50
2022-09-04T05:14:27.950Z,0.40
2022-09-04T05:15:04.156Z,0.40
2022-09-04T05:15:58.255Z,0.50
2022-09-04T05:16:43.281Z,0.40
2022-09-04T05:17:23.714Z,0.40
2022-09-04T05:17:58.978Z,0.40
2022-09-04T05:18:36.654Z,0.40
2022-09-04T05:19:18.747Z,0.40
2022-09-04T05:20:01.724Z,0.40
2022-09-04T05:20:39.901Z,0.40
2022-09-04T05:21:22.728Z,0.40
2022-09-04T05:22:03.414Z,0.50
2022-09-04T05:22:38.789Z,0.50
2022-09-04T05:23:20.262Z,0.40
2022-09-04T05:24:00.614Z,0.60
2022-09-04T05:24:37.277Z,0.67
2022-09-04T05:25:17.422Z,0.63
2022-09-04T05:25:54.910Z,0.70
2022-09-04T05:26:35.945Z,0.87
2022-09-04T05:27:13.515Z,0.80
2022-09-04T05:27:56.906Z,0.80
2022-09-04T05:28:36.420Z,1.00
2022-09-04T05:29:14.033Z,1.10
2022-09-04T05:29:55.510Z,1.20
2022-09-04T05:30:39.284Z,1.00
2022-09-04T05:31:20.976Z,1.00
2022-09-04T05:32:00.025Z,1.30
2022-09-04T05:32:35.867Z,1.50
2022-09-04T05:33:14.678Z,1.67
2022-09-04T05:33:58.049Z,1.40
2022-09-04T05:34:49.218Z,1.50
2022-09-04T05:35:35.310Z,1.70
2022-09-04T05:36:13.526Z,1.10
2022-09-04T05:36:54.181Z,1.40
2022-09-04T05:37:31.803Z,1.37
2022-09-04T05:38:09.330Z,1.27
2022-09-04T05:38:50.736Z,1.27
2022-09-04T05:39:28.434Z,1.20
2022-09-04T05:40:04.218Z,0.90
2022-09-04T05:40:55.505Z,1.07
2022-09-04T05:41:38.546Z,0.90
2022-09-04T05:42:38.535Z,1.07
2022-09-04T05:43:23.145Z,1.23
2022-09-04T05:44:10.601Z,0.87
2022-09-04T05:44:57.833Z,1.20
2022-09-04T05:45:40.106Z,1.10
2022-09-04T05:46:21.137Z,0.83
2022-09-04T05:47:05.088Z,1.30
2022-09-04T05:47:46.766Z,1.17
2022-09-04T05:48:23.808Z,1.00
2022-09-04T05:49:01.261Z,1.50
2022-09-04T05:50:01.233Z,1.17
2022-09-04T05:50:52.481Z,1.13
2022-09-04T05:51:59.914Z,1.53
2022-09-04T05:52:48.509Z,1.17
2022-09-04T05:53:42.810Z,0.90
2022-09-04T05:54:53.368Z,0.90
2022-09-04T05:56:21.398Z,0.83
2022-09-04T05:57:06.287Z,1.00
2022-09-04T05:57:47.765Z,0.90
2022-09-04T05:58:36.569Z,0.83
2022-09-04T05:59:27.892Z,0.70
2022-09-04T06:00:11.955Z,0.80
2022-09-04T06:00:53.666Z,0.70
2022-09-04T06:01:52.243Z,0.93
2022-09-04T06:03:07.656Z,0.80
2022-09-04T06:03:54.866Z,0.77
2022-09-04T06:04:47.442Z,0.73
2022-09-04T06:05:28.704Z,0.90
2022-09-04T06:06:17.310Z,0.60
2022-09-04T06:06:57.346Z,0.60
2022-09-04T06:07:32.402Z,0.60
2022-09-04T06:08:19.055Z,0.80
2022-09-04T06:09:04.458Z,0.60
2022-09-04T06:09:55.136Z,0.60
2022-09-04T06:10:33.474Z,0.60
2022-09-04T06:11:28.050Z,0.60
2022-09-04T06:12:16.183Z,0.60
2022-09-04T06:13:06.725Z,0.60
2022-09-04T06:14:03.354Z,0.60
2022-09-04T06:14:45.634Z,0.50
2022-09-04T06:15:36.958Z,0.53
2022-09-04T06:16:21.339Z,0.50
2022-09-04T06:17:10.661Z,0.83
2022-09-04T06:18:11.899Z,0.40
2022-09-04T06:18:59.865Z,0.50
2022-09-04T06:19:41.498Z,0.50
2022-09-04T06:20:39.180Z,0.63
2022-09-04T06:21:34.590Z,0.67
2022-09-04T06:22:27.884Z,0.63
2022-09-04T06:23:11.690Z,0.50
2022-09-04T06:24:10.282Z,0.40
2022-09-04T06:25:01.663Z,0.60
2022-09-04T06:26:09.334Z,0.40
2022-09-04T06:26:58.286Z,0.50
2022-09-04T06:27:58.119Z,0.50
2022-09-04T06:29:05.573Z,0.60
2022-09-04T06:29:54.358Z,0.67
2022-09-04T06:30:35.390Z,0.60
2022-09-04T06:31:23.757Z,0.60
2022-09-04T06:32:23.910Z,0.50
2022-09-04T06:33:17.478Z,0.50
2022-09-04T06:33:59.710Z,0.50
2022-09-04T06:34:53.978Z,0.63
2022-09-04T06:35:36.368Z,0.60
2022-09-04T06:36:33.998Z,0.47
2022-09-04T06:37:13.326Z,0.40
2022-09-04T06:37:56.569Z,0.40
2022-09-04T06:38:51.534Z,0.43
2022-09-04T06:39:41.715Z,0.57
2022-09-04T06:40:28.310Z,0.47
2022-09-04T06:41:10.942Z,0.50
2022-09-04T06:41:56.826Z,0.50
2022-09-04T06:42:53.192Z,0.50
2022-09-04T06:43:33.197Z,0.40
2022-09-04T06:44:15.342Z,0.50
2022-09-04T06:44:57.496Z,0.40
2022-09-04T06:45:44.168Z,0.50
2022-09-04T06:46:24.279Z,0.40
2022-09-04T06:47:08.203Z,0.50
2022-09-04T06:47:58.622Z,0.60
2022-09-04T06:48:47.784Z,0.40
2022-09-04T06:49:24.648Z,0.60
2022-09-04T06:50:08.502Z,0.40
2022-09-04T06:50:48.578Z,0.50
2022-09-04T06:51:33.294Z,0.50
2022-09-04T06:52:14.488Z,0.40
2022-09-04T06:53:01.026Z,0.40
2022-09-04T06:53:42.917Z,0.50
2022-09-04T06:54:19.983Z,0.50
2022-09-04T06:54:59.364Z,0.40
2022-09-04T06:55:44.622Z,0.50
2022-09-04T06:56:27.338Z,0.50
2022-09-04T06:57:17.165Z,0.43
2022-09-04T06:58:11.118Z,0.50
2022-09-04T06:59:10.129Z,0.40
2022-09-04T06:59:51.681Z,0.40
2022-09-04T07:00:26.582Z,0.50
2022-09-04T07:01:04.178Z,0.40
2022-09-04T07:01:43.462Z,0.50
2022-09-04T07:02:28.982Z,0.40
2022-09-04T07:03:25.925Z,0.40
2022-09-04T07:04:09.145Z,0.40
2022-09-04T07:04:50.782Z,0.57
2022-09-04T07:05:28.586Z,0.50
2022-09-04T07:06:08.109Z,0.40
2022-09-04T07:06:50.777Z,0.40
2022-09-04T07:07:28.882Z,0.40
2022-09-04T07:08:10.726Z,0.50
2022-09-04T07:08:57.616Z,0.40
2022-09-04T07:09:36.224Z,0.40
2022-09-04T07:10:11.191Z,0.50
2022-09-04T07:10:47.839Z,0.40
2022-09-04T07:11:30.789Z,0.50
2022-09-04T07:12:28.270Z,0.40
2022-09-04T07:13:28.182Z,0.40
2022-09-04T07:14:17.607Z,0.50
2022-09-04T07:15:15.022Z,0.47
2022-09-04T07:16:04.643Z,0.40
2022-09-04T07:16:49.881Z,0.40
2022-09-04T07:17:28.386Z,0.40
2022-09-04T07:18:10.463Z,0.43
2022-09-04T07:19:18.817Z,0.40
2022-09-04T07:20:09.730Z,0.50
2022-09-04T07:20:49.205Z,0.40
2022-09-04T07:21:30.395Z,0.50
2022-09-04T07:22:18.024Z,0.40
2022-09-04T07:23:02.817Z,0.40
2022-09-04T07:23:41.937Z,0.40
2022-09-04T07:24:49.800Z,0.30
2022-09-04T07:25:26.489Z,0.30
2022-09-04T07:26:10.168Z,0.40
2022-09-04T07:26:49.559Z,0.40
2022-09-04T07:27:34.981Z,0.40
2022-09-04T07:28:16.417Z,0.40
2022-09-04T07:29:08.536Z,0.40
2022-09-04T07:29:43.870Z,0.40
2022-09-04T07:30:17.400Z,0.40
2022-09-04T07:30:55.567Z,0.40
2022-09-04T07:31:37.035Z,0.30
2022-09-04T07:32:20.254Z,0.40
2022-09-04T07:32:56.445Z,0.40
2022-09-04T07:33:34.981Z,0.50
2022-09-04T07:34:15.148Z,0.40
2022-09-04T07:34:52.824Z,0.40
2022-09-04T07:35:30.581Z,0.40
2022-09-04T07:36:11.066Z,0.40
2022-09-04T07:36:48.964Z,0.40
2022-09-04T07:37:27.974Z,0.40
2022-09-04T07:38:09.732Z,0.40
2022-09-04T07:38:50.858Z,0.50
2022-09-04T07:39:32.769Z,0.40
2022-09-04T07:40:10.071Z,0.40
2022-09-04T07:40:45.157Z,0.40
2022-09-04T07:41:26.346Z,0.33
2022-09-04T07:42:02.058Z,0.40
2022-09-04T07:42:40.210Z,0.30
2022-09-04T07:43:19.745Z,0.40
2022-09-04T07:43:55.902Z,0.40
2022-09-04T07:44:36.846Z,0.40
2022-09-04T07:45:22.060Z,0.40
2022-09-04T07:46:03.476Z,0.43
2022-09-04T07:46:44.624Z,0.40
2022-09-04T07:47:28.442Z,0.50
2022-09-04T07:48:11.385Z,0.40
2022-09-04T07:48:47.188Z,0.40
2022-09-04T07:49:24.399Z,0.40
2022-09-04T07:50:05.624Z,0.50
2022-09-04T07:50:45.859Z,0.40
2022-09-04T07:51:21.679Z,0.50
2022-09-04T07:52:00.336Z,0.40
2022-09-04T07:52:55.207Z,0.40
2022-09-04T07:53:50.754Z,0.40
2022-09-04T07:54:40.842Z,0.40
2022-09-04T07:55:21.394Z,0.40
2022-09-04T07:55:56.836Z,0.40
2022-09-04T07:56:38.882Z,0.40
2022-09-04T07:57:27.674Z,0.40
2022-09-04T07:58:31.711Z,0.40
2022-09-04T07:59:33.894Z,0.40
2022-09-04T08:00:08.668Z,0.43
2022-09-04T08:01:02.831Z,0.50
2022-09-04T08:01:52.861Z,0.40
2022-09-04T08:02:41.882Z,0.40
2022-09-04T08:03:25.085Z,0.40
2022-09-04T08:04:24.609Z,0.50
2022-09-04T08:05:21.331Z,0.40
2022-09-04T08:06:00.281Z,0.40
2022-09-04T08:06:37.930Z,0.40
2022-09-04T08:07:15.679Z,0.40
2022-09-04T08:08:18.898Z,0.40
2022-09-04T08:09:12.495Z,0.40
2022-09-04T08:09:57.135Z,0.40
2022-09-04T08:10:31.609Z,0.40
2022-09-04T08:11:12.321Z,0.40
2022-09-04T08:12:28.943Z,0.43
2022-09-04T08:13:14.257Z,0.50
2022-09-04T08:14:03.493Z,0.40
2022-09-04T08:14:53.902Z,0.40
2022-09-04T08:15:35.181Z,0.40
2022-09-04T08:16:19.054Z,0.40
2022-09-04T08:17:02.981Z,0.50
2022-09-04T08:18:01.735Z,0.60
2022-09-04T08:18:58.025Z,0.50
2022-09-04T08:19:43.117Z,0.50
2022-09-04T08:20:24.926Z,0.50
2022-09-04T08:21:18.360Z,0.40
2022-09-04T08:21:53.067Z,0.40
2022-09-04T08:22:42.846Z,0.30
2022-09-04T08:23:28.664Z,0.50
2022-09-04T08:24:20.895Z,0.40
2022-09-04T08:25:17.181Z,0.50
2022-09-04T08:25:58.292Z,0.50
2022-09-04T08:26:41.688Z,0.40
2022-09-04T08:27:24.690Z,0.40
2022-09-04T08:28:12.403Z,0.40
2022-09-04T08:28:58.681Z,0.50
2022-09-04T08:29:40.233Z,0.40
2022-09-04T08:30:18.458Z,0.40
2022-09-04T08:30:55.376Z,0.40
2022-09-04T08:31:33.982Z,0.40
2022-09-04T08:32:16.582Z,0.40
2022-09-04T08:33:35.877Z,0.40
2022-09-04T08:34:37.954Z,0.40
2022-09-04T08:35:20.959Z,0.40
2022-09-04T08:35:57.787Z,0.40
2022-09-04T08:36:37.736Z,0.40
2022-09-04T08:37:21.577Z,0.40
2022-09-04T08:38:05.057Z,0.50
2022-09-04T08:38:44.189Z,0.50
2022-09-04T08:39:25.541Z,0.30
2022-09-04T08:40:13.582Z,0.40
2022-09-04T08:41:16.374Z,0.40
2022-09-04T08:42:12.720Z,0.50
2022-09-04T08:43:06.695Z,0.57
2022-09-04T08:44:13.871Z,0.40
2022-09-04T08:45:23.663Z,0.40
2022-09-04T08:46:30.166Z,0.40
2022-09-04T08:47:40.238Z,0.40
2022-09-04T08:48:53.877Z,0.40
2022-09-04T08:49:58.571Z,0.40
2022-09-04T08:50:41.934Z,0.40
2022-09-04T08:51:46.582Z,0.40
2022-09-04T08:52:50.879Z,0.40
2022-09-04T08:54:04.522Z,0.40
2022-09-04T08:55:00.814Z,0.40
2022-09-04T08:55:46.175Z,0.40
2022-09-04T08:56:26.690Z,0.50
2022-09-04T08:57:19.995Z,0.50
2022-09-04T08:58:19.639Z,0.50
2022-09-04T08:59:29.033Z,0.50
2022-09-04T09:00:09.944Z,0.40
2022-09-04T09:01:07.653Z,0.40
2022-09-04T09:02:12.167Z,0.40
2022-09-04T09:03:29.709Z,0.40
2022-09-04T09:04:26.736Z,0.40
2022-09-04T09:05:31.967Z,0.43
2022-09-04T09:06:39.070Z,0.50
2022-09-04T09:07:38.090Z,0.40
2022-09-04T09:08:21.374Z,0.40
2022-09-04T09:09:37.245Z,0.40
2022-09-04T09:10:39.339Z,0.40
2022-09-04T09:11:59.074Z,0.40
2022-09-04T09:12:57.050Z,0.43
2022-09-04T09:13:59.857Z,0.40
2022-09-04T09:14:57.651Z,0.50
2022-09-04T09:16:07.916Z,0.40
2022-09-04T09:16:44.149Z,0.50
2022-09-04T09:17:34.885Z,0.50
2022-09-04T09:18:18.588Z,0.40
2022-09-04T09:19:12.249Z,0.40
2022-09-04T09:19:46.542Z,0.40
2022-09-04T09:20:30.217Z,0.40
2022-09-04T09:21:07.593Z,0.40
2022-09-04T09:21:49.732Z,0.40
2022-09-04T09:22:44.766Z,0.40
2022-09-04T09:23:24.118Z,0.40
2022-09-04T09:24:15.645Z,0.40
2022-09-04T09:25:20.969Z,0.40
2022-09-04T09:25:59.334Z,0.40
2022-09-04T09:26:34.566Z,0.40
2022-09-04T09:27:23.863Z,0.40
2022-09-04T09:28:25.962Z,0.40
2022-09-04T09:29:34.173Z,0.37
2022-09-04T09:30:08.381Z,0.37
2022-09-04T09:31:05.503Z,0.40
2022-09-04T09:32:04.259Z,0.40
2022-09-04T09:33:04.094Z,0.30
2022-09-04T09:33:57.233Z,0.40
2022-09-04T09:34:59.694Z,0.50
2022-09-04T09:36:12.277Z,0.30
2022-09-04T09:37:28.249Z,0.37
2022-09-04T09:38:25.848Z,0.40
2022-09-04T09:39:23.062Z,0.40
2022-09-04T09:40:11.811Z,0.40
2022-09-04T09:41:13.710Z,0.40
2022-09-04T09:42:21.414Z,0.40
2022-09-04T09:43:13.823Z,0.40
2022-09-04T09:44:18.515Z,0.40
2022-09-04T09:45:27.282Z,0.40
2022-09-04T09:46:34.709Z,0.40
2022-09-04T09:47:30.950Z,0.40
2022-09-04T09:48:33.961Z,0.40
2022-09-04T09:49:31.282Z,0.40
2022-09-04T09:50:42.008Z,0.40
2022-09-04T09:51:40.859Z,0.40
2022-09-04T09:52:46.513Z,0.30
2022-09-04T09:53:54.445Z,0.40
2022-09-04T09:54:55.450Z,0.50
2022-09-04T09:56:11.506Z,0.40
2022-09-04T09:57:13.572Z,0.37
2022-09-04T09:58:32.540Z,0.40
2022-09-04T09:59:46.474Z,0.40
2022-09-04T10:00:23.765Z,0.50
2022-09-04T10:01:08.468Z,0.40
2022-09-04T10:02:01.229Z,0.40
2022-09-04T10:03:17.729Z,0.40
2022-09-04T10:04:10.750Z,0.40
2022-09-04T10:05:20.145Z,0.40
2022-09-04T10:06:08.160Z,0.40
2022-09-04T10:07:05.475Z,0.33